Etusivu
METAR-TAF:

METAR-TAF

Lentoasemat :

Gran Canaria, Espanja

Gran Canarian lentoasema

Leveyspiiri: 27-56N, Pituuspiiri: 015-23W, korkeus merenpinnasta: 23 m

Tämänhetkinen sää

Tämä raportti tehtiin 38 minuuttia sitten, kello 20.00 UTC
Tuuli 28 kn pohjoisesta puuskistuen 38 kn:hen
Lämpötila 23°C
Kosteus 73%
Ilmanpaine 1018 hPa
Näkyvyys 10 km tai enemmän
Hajanaisia pilviä 3000 ft:n korkeudessa

METAR: GCLP 232000Z 01028G38KT 9999 SCT030 23/18 Q1018 WS ALL RWY NOSIG

Aika: 21:38 (20:38 UTC)

Sääennuste

Tämä raportti tehtiin 6 tuntia ja 38 minuuttia sitten, kello 14.00 UTC
Ennuste voimassa 23. päivästä klo 15 UTC - 24. päivään klo 15 UTC
Tuuli 25 kn pohjoisesta/koillisesta
Näkyvyys 10 km tai enemmän
Hajanaisia pilviä 3000 ft:n korkeudessa
Todennäköisyys 40% :
Ajoittain
23. päivästä klo 15 UTC - 24. päivään klo 15 UTC
Tuuli 25 kn pohjoisesta puuskistuen 35 kn:hen

TAF: GCLP 231400Z 2315/2415 02025KT 9999 SCT030 TX27/2414Z TN21/2405Z PROB40 TEMPO 2315/2415 01025G35KT

Säähavainnot ja -ennusteet yli 4000 lentoasemalta (METAR- ja TAF-raportit).

Käytössä olevat sääasemat on merkitty karttaan keltaisilla ja punaisilla pisteillä.

Aseta hiiri pisteen päälle nähdäksesi sääaseman nimen.

Klikkaa sitten nähdäksesi säähavainnot ja -ennusteet.

Kartan vaihtaminen: klikkaa mustalla rastilla varustettuja vihreitä pisteitä, niin voit zoomata sisään; viivalla varustettua vihreää pistettä, niin voit zoomata ulos tai vihreitä nuolia, niin pääset viereisille kartoille.


METAR-TAF: